Hobbema, Canada
Current Conditions -  °F | °C
As of 11:00 AM on Friday 31 Oct 2014 (Local Time) from CYEG Reporting Station
Overcast Overcast  
Wind Chill:   Ceiling: 11000
Heat Index:   Visibility: 15mi
Dew Point:   Wind: 9mph
Humidity: 81%   Direction: 130°SE
Pressure: 29.59"   Gusts: NA
Location:  52.83°N, 113.45°W
Report Text: CYEG 311700Z 13008KT 15SM BKN110 OVC130 04/01 A2959 RMK AC6AC2 SLP045
Loading
Personal Weather Stations






























Interactive Weather Map
Tropical Storm Tracking
New forecast layout! Learn more

10-Day Weather Forecast

Advertisements
Track Severe Weather on mobile